Terminal Aerodrome Forecast
Issued by NWS

Home | Current Version | Previous Version | Text Only | Print | Product List | Glossary On
Versions: 1 2 3 4 5 6 7 8 9 10 11 12 13 14
000
FTUS46 KSTO 192300
TAFSCK
TAF
KSCK 192324Z 2000/2024 14010KT 6SM -SHRA OVC050
      TEMPO 2000/2004 3SM -SHRA BR OVC030
     FM200600 15005KT 4SM BR VCSH OVC025
     FM202000 16008KT P6SM OVC025=

USA.gov is the U.S. government's official web portal to all federal, state and local government web resources and services.